createdAt,value
2023-03-26T00:01:24.472Z,45.27
2023-03-26T00:04:10.616Z,43.43
2023-03-26T00:06:57.369Z,42.77
2023-03-26T00:09:42.872Z,43.97
2023-03-26T00:12:28.168Z,42.70
2023-03-26T00:15:13.467Z,45.87
2023-03-26T00:18:00.718Z,42.10
2023-03-26T00:20:46.390Z,37.73
2023-03-26T00:23:33.906Z,42.23
2023-03-26T00:26:19.269Z,42.27
2023-03-26T00:29:06.689Z,39.67
2023-03-26T00:31:51.980Z,37.00
2023-03-26T00:34:37.244Z,42.30
2023-03-26T00:37:26.823Z,37.47
2023-03-26T00:40:12.443Z,38.57
2023-03-26T00:42:57.984Z,34.80
2023-03-26T00:45:43.212Z,37.03
2023-03-26T00:48:44.346Z,34.77
2023-03-26T00:51:30.938Z,37.87
2023-03-26T00:54:16.565Z,37.40
2023-03-26T00:57:01.924Z,35.60
2023-03-26T00:59:50.090Z,36.70
2023-03-26T01:02:35.846Z,31.87
2023-03-26T01:05:36.259Z,36.90
2023-03-26T01:08:32.530Z,33.43
2023-03-26T01:11:22.212Z,38.17
2023-03-26T01:14:20.398Z,36.77
2023-03-26T01:17:08.133Z,31.47
2023-03-26T01:20:11.907Z,36.17
2023-03-26T01:23:05.321Z,33.22
2023-03-26T01:26:09.901Z,34.50
2023-03-26T01:28:59.818Z,33.40
2023-03-26T01:32:14.010Z,29.57
2023-03-26T01:35:19.034Z,31.83
2023-03-26T01:38:28.890Z,34.20
2023-03-26T01:41:20.977Z,30.47
2023-03-26T01:44:31.184Z,30.80
2023-03-26T01:47:18.473Z,27.43
2023-03-26T01:50:04.726Z,30.50
2023-03-26T01:52:49.935Z,27.37
2023-03-26T01:56:06.298Z,29.83
2023-03-26T01:59:08.240Z,28.77
2023-03-26T02:02:01.299Z,27.67
2023-03-26T02:04:57.759Z,29.42
2023-03-26T02:07:51.153Z,29.60
2023-03-26T02:10:45.910Z,28.40
2023-03-26T02:13:32.548Z,25.80
2023-03-26T02:16:19.734Z,26.23
2023-03-26T02:19:15.369Z,27.93
2023-03-26T02:22:01.007Z,29.03
2023-03-26T02:24:49.124Z,25.87
2023-03-26T02:27:34.461Z,26.77
2023-03-26T02:30:29.766Z,24.30
2023-03-26T02:33:17.410Z,25.70
2023-03-26T02:36:04.411Z,27.27
2023-03-26T02:38:50.776Z,26.13
2023-03-26T02:41:40.357Z,24.43
2023-03-26T02:44:30.517Z,24.53
2023-03-26T02:47:19.152Z,24.90
2023-03-26T02:50:11.965Z,24.47
2023-03-26T02:53:11.998Z,24.93
2023-03-26T02:56:00.759Z,26.53
2023-03-26T02:58:52.586Z,24.73
2023-03-26T03:01:42.777Z,23.27
2023-03-26T03:04:29.831Z,21.47
2023-03-26T03:07:17.980Z,24.83
2023-03-26T03:10:08.358Z,22.60
2023-03-26T03:13:20.273Z,24.80
2023-03-26T03:16:06.988Z,24.07
2023-03-26T03:18:58.041Z,22.93
2023-03-26T03:21:54.574Z,21.50
2023-03-26T03:24:40.093Z,21.37
2023-03-26T03:27:26.193Z,21.33
2023-03-26T03:30:26.040Z,24.33
2023-03-26T03:33:36.850Z,21.30
2023-03-26T03:36:23.357Z,21.73
2023-03-26T03:39:18.003Z,20.70
2023-03-26T03:42:03.479Z,20.67
2023-03-26T03:44:49.276Z,20.53
2023-03-26T03:47:57.203Z,21.63
2023-03-26T03:53:42.333Z,22.63
2023-03-26T03:56:29.218Z,19.43
2023-03-26T03:59:34.648Z,19.53
2023-03-26T04:02:30.296Z,23.03
2023-03-26T04:05:19.980Z,20.37
2023-03-26T04:08:08.422Z,19.87
2023-03-26T04:11:06.424Z,20.77
2023-03-26T04:14:11.235Z,18.33
2023-03-26T04:17:14.058Z,18.90
2023-03-26T04:20:10.609Z,18.53
2023-03-26T04:22:56.281Z,19.10
2023-03-26T04:25:50.113Z,18.17
2023-03-26T04:28:47.641Z,18.40
2023-03-26T04:31:38.338Z,18.37
2023-03-26T04:34:25.281Z,16.07
2023-03-26T04:37:40.085Z,16.03
2023-03-26T04:40:30.640Z,18.75
2023-03-26T04:43:36.202Z,18.97
2023-03-26T04:46:45.285Z,20.23
2023-03-26T04:49:57.236Z,19.42
2023-03-26T04:52:45.177Z,19.77
2023-03-26T04:56:07.057Z,17.53
2023-03-26T04:59:26.087Z,14.93
2023-03-26T05:02:14.209Z,18.10
2023-03-26T05:05:18.196Z,18.40
2023-03-26T05:08:05.723Z,19.13
2023-03-26T05:10:51.065Z,21.40
2023-03-26T05:13:47.125Z,18.77
2023-03-26T05:16:36.201Z,20.30
2023-03-26T05:19:26.068Z,19.27
2023-03-26T05:22:11.736Z,16.03
2023-03-26T05:25:04.100Z,20.73
2023-03-26T05:27:49.593Z,18.53
2023-03-26T05:30:36.214Z,19.30
2023-03-26T05:33:23.524Z,17.63
2023-03-26T05:36:19.227Z,15.07
2023-03-26T05:39:09.882Z,17.10
2023-03-26T05:42:27.894Z,15.27
2023-03-26T05:45:25.951Z,14.93
2023-03-26T05:48:12.313Z,14.93
2023-03-26T05:50:59.138Z,14.13
2023-03-26T05:53:47.306Z,17.67
2023-03-26T05:56:53.234Z,15.20
2023-03-26T05:59:58.078Z,16.50
2023-03-26T06:03:02.756Z,15.00
2023-03-26T06:06:16.894Z,14.27
2023-03-26T06:09:08.479Z,12.50
2023-03-26T06:11:55.075Z,16.97
2023-03-26T06:14:42.903Z,13.50
2023-03-26T06:17:36.305Z,15.87
2023-03-26T06:20:32.891Z,16.47
2023-03-26T06:23:23.957Z,17.37
2023-03-26T06:26:34.016Z,16.43
2023-03-26T06:32:44.790Z,16.10
2023-03-26T06:35:36.664Z,9.60
2023-03-26T06:38:22.407Z,12.80
2023-03-26T06:41:08.250Z,13.87
2023-03-26T06:49:08.139Z,14.63
2023-03-26T06:52:24.312Z,10.73
2023-03-26T06:55:45.135Z,11.90
2023-03-26T06:58:45.827Z,11.37
2023-03-26T07:01:49.895Z,16.27
2023-03-26T07:04:54.232Z,13.03
2023-03-26T07:07:58.443Z,15.17
2023-03-26T07:11:02.576Z,11.27
2023-03-26T07:14:08.491Z,10.97
2023-03-26T07:17:17.098Z,10.07
2023-03-26T07:20:13.135Z,11.63
2023-03-26T07:23:01.313Z,12.37
2023-03-26T07:26:13.659Z,17.83
2023-03-26T07:33:03.809Z,20.37
2023-03-26T07:36:43.234Z,23.80
2023-03-26T07:40:24.514Z,20.77
2023-03-26T07:43:43.114Z,19.73
2023-03-26T07:46:53.279Z,19.73
2023-03-26T07:49:57.927Z,17.20
2023-03-26T07:53:02.563Z,19.33
2023-03-26T07:56:20.433Z,17.03
2023-03-26T08:00:01.297Z,18.47
2023-03-26T08:03:23.629Z,20.07
2023-03-26T08:06:36.541Z,22.67
2023-03-26T08:09:38.545Z,22.67
2023-03-26T08:13:18.209Z,19.53
2023-03-26T08:16:33.192Z,19.57
2023-03-26T08:19:44.903Z,11.67
2023-03-26T08:22:36.701Z,12.93
2023-03-26T08:25:33.445Z,20.13
2023-03-26T08:28:46.117Z,16.27
2023-03-26T08:31:35.141Z,14.17
2023-03-26T08:34:20.590Z,21.23
2023-03-26T08:37:05.881Z,17.27
2023-03-26T08:39:51.578Z,16.10
2023-03-26T08:43:08.500Z,17.53
2023-03-26T08:46:23.686Z,15.87
2023-03-26T08:49:29.691Z,13.83
2023-03-26T08:52:18.153Z,13.57
2023-03-26T08:55:17.769Z,11.73
2023-03-26T08:58:27.964Z,11.93
2023-03-26T09:01:32.092Z,12.03
2023-03-26T09:04:20.930Z,16.07
2023-03-26T09:07:12.368Z,12.70
2023-03-26T09:10:04.635Z,15.37
2023-03-26T09:13:22.590Z,11.50
2023-03-26T09:16:49.325Z,13.20
2023-03-26T09:20:12.198Z,11.20
2023-03-26T09:23:03.697Z,10.87
2023-03-26T09:26:03.606Z,11.70
2023-03-26T09:29:10.849Z,12.23
2023-03-26T09:32:18.320Z,13.10
2023-03-26T09:35:25.973Z,11.10
2023-03-26T09:38:29.709Z,14.10
2023-03-26T09:41:21.255Z,13.93
2023-03-26T09:44:32.088Z,14.13
2023-03-26T09:47:44.029Z,12.10
2023-03-26T09:50:54.242Z,9.63
2023-03-26T09:53:52.052Z,13.17
2023-03-26T09:56:43.621Z,11.87
2023-03-26T09:59:57.298Z,9.30
2023-03-26T10:03:07.617Z,14.75
2023-03-26T10:05:58.154Z,9.47
2023-03-26T10:09:08.472Z,10.47
2023-03-26T10:12:14.423Z,10.63
2023-03-26T10:15:08.497Z,12.07
2023-03-26T10:18:33.092Z,15.70
2023-03-26T10:21:26.714Z,12.37
2023-03-26T10:24:37.897Z,10.67
2023-03-26T10:27:41.625Z,8.43
2023-03-26T10:30:53.240Z,11.23
2023-03-26T10:33:48.113Z,11.30
2023-03-26T10:36:33.525Z,12.60
2023-03-26T10:39:41.688Z,10.90
2023-03-26T10:42:55.579Z,11.17
2023-03-26T10:45:59.761Z,11.80
2023-03-26T10:48:47.858Z,8.67
2023-03-26T10:51:48.691Z,10.67
2023-03-26T10:54:56.672Z,12.17
2023-03-26T10:57:52.899Z,10.77
2023-03-26T11:00:47.543Z,10.33
2023-03-26T11:03:52.631Z,10.00
2023-03-26T11:07:04.836Z,8.90
2023-03-26T11:09:56.828Z,11.00
2023-03-26T11:13:05.047Z,15.00
2023-03-26T11:16:05.049Z,10.77
2023-03-26T11:19:05.753Z,14.67
2023-03-26T11:22:09.135Z,11.53
2023-03-26T11:25:23.446Z,9.70
2023-03-26T11:28:31.160Z,10.47
2023-03-26T11:31:24.683Z,12.03
2023-03-26T11:34:16.597Z,9.67
2023-03-26T11:37:08.623Z,13.27
2023-03-26T11:39:58.416Z,10.13
2023-03-26T11:42:44.909Z,7.30
2023-03-26T11:45:39.429Z,5.87
2023-03-26T11:48:37.030Z,7.67
2023-03-26T11:51:33.588Z,7.47
2023-03-26T11:54:21.167Z,6.13
2023-03-26T11:57:13.757Z,6.40
2023-03-26T12:00:17.972Z,6.32
2023-03-26T12:03:03.319Z,7.30
2023-03-26T12:05:59.348Z,7.97
2023-03-26T12:08:44.838Z,5.80
2023-03-26T12:11:35.624Z,3.90
2023-03-26T12:14:24.853Z,5.33
2023-03-26T12:17:31.402Z,3.33
2023-03-26T12:20:29.823Z,3.50
2023-03-26T12:23:38.798Z,3.23
2023-03-26T12:26:46.364Z,4.40
2023-03-26T12:29:34.708Z,4.23
2023-03-26T12:32:19.881Z,5.03
2023-03-26T12:35:08.225Z,4.13
2023-03-26T12:37:55.812Z,4.33
2023-03-26T12:40:43.063Z,4.30
2023-03-26T12:44:54.325Z,4.53
2023-03-26T12:50:34.078Z,3.33
2023-03-26T12:53:40.639Z,4.20
2023-03-26T12:56:37.021Z,3.73
2023-03-26T12:59:41.655Z,4.73
2023-03-26T13:02:48.628Z,3.53
2023-03-26T13:06:06.648Z,2.30
2023-03-26T13:09:29.842Z,4.97
2023-03-26T13:12:34.198Z,4.22
2023-03-26T13:15:33.162Z,3.70
2023-03-26T13:18:52.061Z,5.23
2023-03-26T13:21:53.959Z,3.00
2023-03-26T13:25:01.518Z,6.43
2023-03-26T13:28:12.090Z,4.23
2023-03-26T13:31:18.036Z,5.80
2023-03-26T13:34:46.904Z,4.60
2023-03-26T13:37:55.537Z,6.97
2023-03-26T13:41:02.649Z,9.17
2023-03-26T13:44:03.200Z,11.53
2023-03-26T13:47:13.351Z,11.87
2023-03-26T13:50:06.284Z,13.53
2023-03-26T13:52:57.070Z,20.10
2023-03-26T13:55:50.392Z,31.00
2023-03-26T14:01:55.415Z,41.43
2023-03-26T14:04:47.956Z,45.10
2023-03-26T14:07:41.395Z,47.33
2023-03-26T14:13:38.857Z,41.37
2023-03-26T14:16:34.583Z,31.70
2023-03-26T14:19:33.692Z,30.40
2023-03-26T14:22:21.956Z,37.07
2023-03-26T14:25:19.775Z,35.87
2023-03-26T14:28:38.332Z,33.13
2023-03-26T14:31:56.433Z,35.87
2023-03-26T14:35:06.227Z,36.47
2023-03-26T14:38:21.021Z,35.47
2023-03-26T14:41:19.152Z,35.90
2023-03-26T14:44:51.341Z,25.87
2023-03-26T14:48:15.530Z,28.77
2023-03-26T14:51:13.165Z,21.90
2023-03-26T14:54:08.860Z,22.43
2023-03-26T14:57:25.513Z,21.10
2023-03-26T15:00:49.636Z,24.80
2023-03-26T15:03:53.634Z,17.98
2023-03-26T15:06:55.156Z,18.97
2023-03-26T15:10:34.682Z,20.07
2023-03-26T15:13:40.919Z,18.20
2023-03-26T15:16:44.497Z,19.13
2023-03-26T15:20:04.316Z,17.00
2023-03-26T15:23:18.720Z,15.57
2023-03-26T15:26:11.276Z,17.00
2023-03-26T15:29:21.973Z,16.20
2023-03-26T15:32:42.748Z,16.67
2023-03-26T15:36:03.538Z,18.43
2023-03-26T15:39:25.113Z,13.77
2023-03-26T15:42:42.649Z,14.47
2023-03-26T15:45:46.062Z,16.43
2023-03-26T15:48:39.785Z,13.50
2023-03-26T15:51:26.128Z,13.97
2023-03-26T15:54:23.153Z,13.73
2023-03-26T15:57:32.633Z,14.30
2023-03-26T16:00:19.269Z,14.30
2023-03-26T16:03:10.924Z,14.83
2023-03-26T16:06:31.031Z,12.67
2023-03-26T16:09:44.946Z,11.63
2023-03-26T16:12:35.829Z,16.63
2023-03-26T16:15:33.298Z,11.57
2023-03-26T16:18:27.552Z,11.13
2023-03-26T16:21:30.530Z,11.53
2023-03-26T16:24:23.406Z,7.90
2023-03-26T16:27:15.302Z,11.43
2023-03-26T16:30:01.202Z,10.67
2023-03-26T16:32:56.403Z,9.80
2023-03-26T16:36:05.686Z,8.07
2023-03-26T16:39:11.719Z,11.90
2023-03-26T16:42:06.181Z,11.67
2023-03-26T16:44:52.176Z,9.80
2023-03-26T16:47:44.806Z,7.43
2023-03-26T16:50:50.161Z,10.20
2023-03-26T16:53:41.721Z,10.50
2023-03-26T16:56:45.250Z,11.20
2023-03-26T17:00:05.697Z,10.50
2023-03-26T17:03:31.807Z,12.67
2023-03-26T17:06:25.267Z,12.00
2023-03-26T17:09:51.581Z,16.02
2023-03-26T17:12:44.563Z,13.97
2023-03-26T17:15:52.466Z,15.07
2023-03-26T17:18:37.678Z,12.70
2023-03-26T17:21:45.747Z,13.70
2023-03-26T17:24:57.203Z,12.93
2023-03-26T17:28:24.035Z,13.40
2023-03-26T17:31:37.153Z,14.10
2023-03-26T17:34:38.095Z,11.05
2023-03-26T17:37:23.700Z,13.10
2023-03-26T17:40:44.770Z,10.73
2023-03-26T17:43:47.127Z,15.33
2023-03-26T17:49:32.025Z,15.33
2023-03-26T17:52:41.661Z,15.57
2023-03-26T17:55:38.810Z,9.73
2023-03-26T17:58:42.850Z,10.50
2023-03-26T18:01:38.466Z,7.40
2023-03-26T18:04:34.967Z,8.17
2023-03-26T18:07:32.218Z,9.80
2023-03-26T18:10:30.747Z,12.10
2023-03-26T18:13:44.901Z,8.60
2023-03-26T18:16:39.287Z,6.37
2023-03-26T18:19:25.993Z,10.60
2023-03-26T18:22:19.536Z,13.33
2023-03-26T18:25:05.330Z,10.53
2023-03-26T18:27:51.453Z,11.47
2023-03-26T18:30:47.881Z,11.27
2023-03-26T18:33:43.153Z,8.27
2023-03-26T18:36:31.074Z,10.77
2023-03-26T18:39:18.737Z,8.63
2023-03-26T18:42:22.867Z,7.23
2023-03-26T18:45:23.600Z,6.87
2023-03-26T18:48:19.168Z,8.93
2023-03-26T18:51:07.176Z,8.93
2023-03-26T18:53:57.248Z,9.73
2023-03-26T18:56:47.099Z,7.63
2023-03-26T18:59:38.057Z,9.40
2023-03-26T19:02:27.070Z,7.83
2023-03-26T19:05:21.953Z,6.50
2023-03-26T19:08:08.247Z,6.47
2023-03-26T19:10:55.171Z,7.70
2023-03-26T19:13:46.371Z,9.33
2023-03-26T19:16:35.620Z,7.63
2023-03-26T19:19:23.570Z,5.57
2023-03-26T19:22:11.860Z,7.43
2023-03-26T19:25:00.925Z,5.70
2023-03-26T19:27:46.763Z,6.07
2023-03-26T19:30:41.123Z,6.60
2023-03-26T19:33:34.696Z,5.13
2023-03-26T19:36:23.622Z,4.33
2023-03-26T19:39:12.797Z,5.20
2023-03-26T19:41:58.383Z,5.43
2023-03-26T19:44:44.729Z,4.23
2023-03-26T19:47:50.405Z,3.93
2023-03-26T19:50:53.364Z,4.53
2023-03-26T19:53:43.840Z,4.53
2023-03-26T19:56:30.100Z,4.53
2023-03-26T19:59:15.711Z,4.40
2023-03-26T20:02:01.696Z,3.60
2023-03-26T20:04:47.818Z,4.93
2023-03-26T20:07:35.399Z,4.13
2023-03-26T20:10:21.031Z,3.80
2023-03-26T20:13:17.287Z,3.57
2023-03-26T20:16:27.307Z,4.03
2023-03-26T20:19:14.180Z,7.60
2023-03-26T20:22:00.639Z,4.67
2023-03-26T20:24:46.825Z,4.97
2023-03-26T20:27:32.359Z,5.73
2023-03-26T20:30:27.526Z,3.97
2023-03-26T20:33:27.778Z,4.97
2023-03-26T20:36:13.715Z,4.43
2023-03-26T20:38:59.024Z,4.63
2023-03-26T20:41:47.144Z,4.73
2023-03-26T20:44:32.737Z,3.70
2023-03-26T20:47:18.196Z,3.50
2023-03-26T20:50:05.126Z,6.20
2023-03-26T20:52:50.564Z,5.43
2023-03-26T20:55:35.992Z,7.87
2023-03-26T20:58:31.542Z,4.17
2023-03-26T21:01:17.804Z,4.27
2023-03-26T21:04:04.431Z,3.97
2023-03-26T21:06:50.800Z,3.60
2023-03-26T21:09:37.543Z,3.77
2023-03-26T21:12:33.524Z,3.87
2023-03-26T21:15:23.527Z,4.33
2023-03-26T21:18:09.850Z,4.27
2023-03-26T21:21:30.407Z,7.10
2023-03-26T21:24:45.947Z,3.33
2023-03-26T21:27:47.351Z,4.03
2023-03-26T21:30:34.407Z,4.17
2023-03-26T21:33:20.352Z,5.80
2023-03-26T21:36:07.465Z,3.97
2023-03-26T21:38:54.659Z,6.13
2023-03-26T21:41:45.660Z,4.97
2023-03-26T21:44:31.918Z,4.43
2023-03-26T21:47:18.177Z,4.30
2023-03-26T21:50:06.960Z,4.40
2023-03-26T21:52:53.529Z,3.33
2023-03-26T21:56:16.134Z,3.63
2023-03-26T21:59:10.768Z,3.60
2023-03-26T22:01:58.934Z,4.47
2023-03-26T22:05:11.487Z,4.77
2023-03-26T22:08:03.089Z,3.70
2023-03-26T22:10:48.891Z,3.83
2023-03-26T22:13:35.770Z,2.50
2023-03-26T22:16:25.480Z,3.90
2023-03-26T22:19:12.846Z,3.40
2023-03-26T22:22:00.190Z,3.40
2023-03-26T22:24:45.770Z,4.40
2023-03-26T22:27:31.247Z,2.60
2023-03-26T22:30:17.874Z,4.43
2023-03-26T22:33:03.544Z,3.47
2023-03-26T22:35:49.713Z,3.63
2023-03-26T22:38:36.245Z,2.30
2023-03-26T22:41:23.026Z,2.60
2023-03-26T22:44:19.058Z,3.20
2023-03-26T22:47:05.984Z,2.67
2023-03-26T22:49:51.585Z,2.70
2023-03-26T22:52:38.966Z,3.77
2023-03-26T22:55:28.425Z,5.27
2023-03-26T22:58:14.811Z,2.50
2023-03-26T23:01:10.610Z,2.53
2023-03-26T23:03:56.354Z,2.77
2023-03-26T23:06:42.263Z,3.30
2023-03-26T23:09:27.646Z,3.37
2023-03-26T23:12:12.867Z,6.63
2023-03-26T23:14:58.337Z,2.90
2023-03-26T23:17:43.784Z,3.30
2023-03-26T23:20:29.991Z,3.43
2023-03-26T23:23:15.877Z,3.10
2023-03-26T23:26:03.494Z,2.57
2023-03-26T23:28:51.098Z,3.00
2023-03-26T23:31:37.046Z,3.13
2023-03-26T23:34:23.230Z,2.67
2023-03-26T23:37:11.151Z,2.17
2023-03-26T23:39:56.649Z,2.83
2023-03-26T23:42:42.464Z,2.47
2023-03-26T23:45:27.693Z,2.60
2023-03-26T23:48:17.430Z,3.00
2023-03-26T23:51:04.003Z,2.57
2023-03-26T23:53:50.140Z,2.33
2023-03-26T23:56:36.075Z,2.67
2023-03-26T23:59:21.236Z,2.27
